sensor_id;sensor_type;location;lat;lon;timestamp;P1;durP1;ratioP1;P2;durP2;ratioP2
21804;SDS011;11064;47.102;15.452;2023-11-19T06:02:49;10.90;;;6.72;;
21804;SDS011;11064;47.102;15.452;2023-11-19T06:05:15;8.38;;;6.38;;
21804;SDS011;11064;47.102;15.452;2023-11-19T06:07:40;10.30;;;6.30;;
21804;SDS011;11064;47.102;15.452;2023-11-19T06:10:06;9.40;;;6.03;;
21804;SDS011;11064;47.102;15.452;2023-11-19T06:12:34;9.05;;;6.25;;
21804;SDS011;11064;47.102;15.452;2023-11-19T06:15:04;10.32;;;6.90;;
21804;SDS011;11064;47.102;15.452;2023-11-19T06:17:31;10.23;;;6.88;;
21804;SDS011;11064;47.102;15.452;2023-11-19T06:19:57;10.20;;;6.53;;
21804;SDS011;11064;47.102;15.452;2023-11-19T06:22:23;10.75;;;6.30;;
21804;SDS011;11064;47.102;15.452;2023-11-19T06:24:48;10.25;;;6.30;;
21804;SDS011;11064;47.102;15.452;2023-11-19T06:27:14;9.95;;;6.18;;
21804;SDS011;11064;47.102;15.452;2023-11-19T06:29:40;9.30;;;6.15;;
21804;SDS011;11064;47.102;15.452;2023-11-19T06:32:07;8.45;;;6.10;;
21804;SDS011;11064;47.102;15.452;2023-11-19T06:34:33;11.02;;;6.07;;
21804;SDS011;11064;47.102;15.452;2023-11-19T06:36:59;8.27;;;5.65;;
21804;SDS011;11064;47.102;15.452;2023-11-19T06:39:25;8.45;;;5.57;;
21804;SDS011;11064;47.102;15.452;2023-11-19T06:41:51;11.70;;;6.43;;
21804;SDS011;11064;47.102;15.452;2023-11-19T06:44:17;8.15;;;5.90;;
21804;SDS011;11064;47.102;15.452;2023-11-19T06:46:43;8.80;;;5.88;;
21804;SDS011;11064;47.102;15.452;2023-11-19T06:49:09;9.85;;;6.30;;
21804;SDS011;11064;47.102;15.452;2023-11-19T06:51:34;9.68;;;6.20;;
21804;SDS011;11064;47.102;15.452;2023-11-19T06:54:00;9.48;;;6.05;;
21804;SDS011;11064;47.102;15.452;2023-11-19T06:56:26;13.48;;;6.68;;
21804;SDS011;11064;47.102;15.452;2023-11-19T06:58:53;8.18;;;6.03;;
21804;SDS011;11064;47.102;15.452;2023-11-19T07:01:19;8.10;;;5.90;;
21804;SDS011;11064;47.102;15.452;2023-11-19T07:03:45;8.10;;;5.93;;
21804;SDS011;11064;47.102;15.452;2023-11-19T07:06:11;7.82;;;6.15;;
21804;SDS011;11064;47.102;15.452;2023-11-19T07:08:41;8.88;;;6.35;;
21804;SDS011;11064;47.102;15.452;2023-11-19T07:11:10;9.63;;;6.47;;
21804;SDS011;11064;47.102;15.452;2023-11-19T07:13:37;9.32;;;6.10;;
21804;SDS011;11064;47.102;15.452;2023-11-19T07:16:03;7.63;;;5.75;;
21804;SDS011;11064;47.102;15.452;2023-11-19T07:18:29;8.20;;;5.80;;
21804;SDS011;11064;47.102;15.452;2023-11-19T07:20:55;8.45;;;6.20;;
21804;SDS011;11064;47.102;15.452;2023-11-19T07:23:22;8.20;;;6.10;;
21804;SDS011;11064;47.102;15.452;2023-11-19T07:25:48;8.88;;;5.93;;
21804;SDS011;11064;47.102;15.452;2023-11-19T07:28:15;8.73;;;6.45;;
21804;SDS011;11064;47.102;15.452;2023-11-19T07:30:41;8.43;;;6.20;;
21804;SDS011;11064;47.102;15.452;2023-11-19T07:33:07;9.77;;;6.10;;
21804;SDS011;11064;47.102;15.452;2023-11-19T07:35:33;8.68;;;5.82;;
21804;SDS011;11064;47.102;15.452;2023-11-19T07:37:59;8.38;;;5.93;;
21804;SDS011;11064;47.102;15.452;2023-11-19T07:40:25;9.55;;;6.35;;
21804;SDS011;11064;47.102;15.452;2023-11-19T07:42:51;8.57;;;6.00;;
21804;SDS011;11064;47.102;15.452;2023-11-19T07:45:17;9.43;;;6.93;;
21804;SDS011;11064;47.102;15.452;2023-11-19T07:47:43;13.50;;;6.32;;
21804;SDS011;11064;47.102;15.452;2023-11-19T07:50:12;8.30;;;6.13;;
21804;SDS011;11064;47.102;15.452;2023-11-19T07:52:42;10.82;;;6.22;;
21804;SDS011;11064;47.102;15.452;2023-11-19T07:55:07;7.70;;;5.60;;
21804;SDS011;11064;47.102;15.452;2023-11-19T07:57:33;8.35;;;5.80;;
21804;SDS011;11064;47.102;15.452;2023-11-19T08:00:00;9.20;;;6.28;;
21804;SDS011;11064;47.102;15.452;2023-11-19T08:02:27;9.93;;;6.32;;
21804;SDS011;11064;47.102;15.452;2023-11-19T08:04:54;8.82;;;6.00;;
21804;SDS011;11064;47.102;15.452;2023-11-19T08:07:20;8.85;;;6.30;;
21804;SDS011;11064;47.102;15.452;2023-11-19T08:09:50;8.45;;;6.13;;
21804;SDS011;11064;47.102;15.452;2023-11-19T08:12:16;10.05;;;6.50;;
21804;SDS011;11064;47.102;15.452;2023-11-19T08:14:42;8.50;;;5.95;;
21804;SDS011;11064;47.102;15.452;2023-11-19T08:17:09;8.40;;;5.88;;
21804;SDS011;11064;47.102;15.452;2023-11-19T08:19:35;9.35;;;6.63;;
21804;SDS011;11064;47.102;15.452;2023-11-19T08:22:01;8.85;;;6.32;;
21804;SDS011;11064;47.102;15.452;2023-11-19T08:24:28;8.55;;;6.00;;
21804;SDS011;11064;47.102;15.452;2023-11-19T08:26:54;8.98;;;6.32;;
21804;SDS011;11064;47.102;15.452;2023-11-19T08:29:20;10.93;;;6.28;;
21804;SDS011;11064;47.102;15.452;2023-11-19T08:31:46;8.10;;;5.97;;
21804;SDS011;11064;47.102;15.452;2023-11-19T08:34:12;9.57;;;6.10;;
21804;SDS011;11064;47.102;15.452;2023-11-19T08:36:38;8.82;;;6.53;;
21804;SDS011;11064;47.102;15.452;2023-11-19T08:39:03;8.90;;;6.50;;
21804;SDS011;11064;47.102;15.452;2023-11-19T08:41:29;8.20;;;5.97;;
21804;SDS011;11064;47.102;15.452;2023-11-19T08:43:56;9.15;;;5.82;;
21804;SDS011;11064;47.102;15.452;2023-11-19T08:46:22;8.73;;;5.82;;
21804;SDS011;11064;47.102;15.452;2023-11-19T08:48:47;7.30;;;5.65;;
21804;SDS011;11064;47.102;15.452;2023-11-19T08:51:13;7.78;;;5.03;;
21804;SDS011;11064;47.102;15.452;2023-11-19T08:53:39;8.32;;;5.10;;
21804;SDS011;11064;47.102;15.452;2023-11-19T08:56:05;8.07;;;5.45;;
21804;SDS011;11064;47.102;15.452;2023-11-19T08:58:31;8.93;;;5.68;;
21804;SDS011;11064;47.102;15.452;2023-11-19T09:00:58;7.85;;;5.50;;
21804;SDS011;11064;47.102;15.452;2023-11-19T09:03:23;9.48;;;5.60;;
21804;SDS011;11064;47.102;15.452;2023-11-19T09:05:51;8.50;;;6.03;;
21804;SDS011;11064;47.102;15.452;2023-11-19T09:08:17;8.60;;;5.60;;
21804;SDS011;11064;47.102;15.452;2023-11-19T09:10:43;8.10;;;5.10;;
21804;SDS011;11064;47.102;15.452;2023-11-19T09:13:09;8.88;;;5.47;;
21804;SDS011;11064;47.102;15.452;2023-11-19T09:15:35;7.45;;;5.40;;
21804;SDS011;11064;47.102;15.452;2023-11-19T09:18:00;7.50;;;5.43;;
21804;SDS011;11064;47.102;15.452;2023-11-19T09:20:26;8.95;;;5.68;;
21804;SDS011;11064;47.102;15.452;2023-11-19T09:22:52;7.78;;;5.43;;
21804;SDS011;11064;47.102;15.452;2023-11-19T09:25:19;7.50;;;5.40;;
21804;SDS011;11064;47.102;15.452;2023-11-19T09:27:47;8.70;;;5.43;;
21804;SDS011;11064;47.102;15.452;2023-11-19T09:30:13;8.50;;;6.22;;
21804;SDS011;11064;47.102;15.452;2023-11-19T09:32:40;7.35;;;5.32;;
21804;SDS011;11064;47.102;15.452;2023-11-19T09:35:06;6.95;;;5.15;;
21804;SDS011;11064;47.102;15.452;2023-11-19T09:37:32;8.40;;;5.47;;
21804;SDS011;11064;47.102;15.452;2023-11-19T09:39:58;6.93;;;5.10;;
21804;SDS011;11064;47.102;15.452;2023-11-19T09:42:24;6.75;;;4.63;;
21804;SDS011;11064;47.102;15.452;2023-11-19T09:44:53;5.60;;;4.20;;
21804;SDS011;11064;47.102;15.452;2023-11-19T09:47:21;6.35;;;4.40;;
21804;SDS011;11064;47.102;15.452;2023-11-19T09:49:48;6.28;;;4.03;;
21804;SDS011;11064;47.102;15.452;2023-11-19T09:52:17;5.68;;;4.05;;
21804;SDS011;11064;47.102;15.452;2023-11-19T09:54:43;5.55;;;3.97;;
21804;SDS011;11064;47.102;15.452;2023-11-19T09:57:10;4.63;;;3.65;;
21804;SDS011;11064;47.102;15.452;2023-11-19T09:59:40;5.63;;;4.07;;
21804;SDS011;11064;47.102;15.452;2023-11-19T10:02:08;5.38;;;3.80;;
21804;SDS011;11064;47.102;15.452;2023-11-19T10:04:35;6.78;;;4.25;;
21804;SDS011;11064;47.102;15.452;2023-11-19T10:07:02;6.40;;;5.05;;
21804;SDS011;11064;47.102;15.452;2023-11-19T10:09:30;8.75;;;5.70;;
21804;SDS011;11064;47.102;15.452;2023-11-19T10:11:56;6.45;;;4.10;;
21804;SDS011;11064;47.102;15.452;2023-11-19T10:14:22;7.43;;;5.35;;
21804;SDS011;11064;47.102;15.452;2023-11-19T10:16:49;11.45;;;7.70;;
21804;SDS011;11064;47.102;15.452;2023-11-19T10:19:21;10.45;;;7.30;;
21804;SDS011;11064;47.102;15.452;2023-11-19T10:21:47;10.40;;;6.93;;
21804;SDS011;11064;47.102;15.452;2023-11-19T10:24:13;9.52;;;6.97;;
21804;SDS011;11064;47.102;15.452;2023-11-19T10:26:39;11.07;;;7.80;;
21804;SDS011;11064;47.102;15.452;2023-11-19T10:29:08;10.98;;;6.70;;
21804;SDS011;11064;47.102;15.452;2023-11-19T10:31:37;9.05;;;6.68;;
21804;SDS011;11064;47.102;15.452;2023-11-19T10:34:03;9.80;;;6.63;;
21804;SDS011;11064;47.102;15.452;2023-11-19T10:36:38;9.85;;;6.55;;
21804;SDS011;11064;47.102;15.452;2023-11-19T10:39:10;8.98;;;6.78;;
21804;SDS011;11064;47.102;15.452;2023-11-19T10:41:35;8.57;;;6.55;;
21804;SDS011;11064;47.102;15.452;2023-11-19T10:44:01;9.07;;;6.40;;
21804;SDS011;11064;47.102;15.452;2023-11-19T10:46:37;7.18;;;5.45;;
21804;SDS011;11064;47.102;15.452;2023-11-19T10:49:09;8.20;;;5.75;;
21804;SDS011;11064;47.102;15.452;2023-11-19T10:51:35;7.57;;;5.30;;
21804;SDS011;11064;47.102;15.452;2023-11-19T10:54:02;7.03;;;5.28;;
21804;SDS011;11064;47.102;15.452;2023-11-19T10:56:32;7.57;;;5.70;;
21804;SDS011;11064;47.102;15.452;2023-11-19T10:59:00;7.32;;;5.40;;
21804;SDS011;11064;47.102;15.452;2023-11-19T11:01:29;7.40;;;5.10;;
21804;SDS011;11064;47.102;15.452;2023-11-19T11:04:06;6.72;;;5.10;;
21804;SDS011;11064;47.102;15.452;2023-11-19T11:06:42;8.90;;;5.20;;
21804;SDS011;11064;47.102;15.452;2023-11-19T11:09:08;7.63;;;5.72;;
21804;SDS011;11064;47.102;15.452;2023-11-19T11:11:40;7.47;;;5.65;;
21804;SDS011;11064;47.102;15.452;2023-11-19T11:14:09;9.02;;;6.05;;
21804;SDS011;11064;47.102;15.452;2023-11-19T11:16:41;8.38;;;5.85;;
21804;SDS011;11064;47.102;15.452;2023-11-19T11:19:09;7.40;;;5.57;;
21804;SDS011;11064;47.102;15.452;2023-11-19T11:21:35;9.65;;;5.82;;
21804;SDS011;11064;47.102;15.452;2023-11-19T11:26:53;7.40;;;5.70;;
21804;SDS011;11064;47.102;15.452;2023-11-19T11:29:45;7.78;;;5.90;;
21804;SDS011;11064;47.102;15.452;2023-11-19T11:32:35;8.15;;;5.70;;
21804;SDS011;11064;47.102;15.452;2023-11-19T11:35:24;7.93;;;5.55;;
21804;SDS011;11064;47.102;15.452;2023-11-19T11:38:10;7.93;;;5.47;;
21804;SDS011;11064;47.102;15.452;2023-11-19T11:40:36;7.97;;;5.75;;
21804;SDS011;11064;47.102;15.452;2023-11-19T11:43:02;7.75;;;5.53;;
21804;SDS011;11064;47.102;15.452;2023-11-19T11:45:36;8.73;;;5.85;;
21804;SDS011;11064;47.102;15.452;2023-11-19T11:50:51;7.70;;;5.10;;
21804;SDS011;11064;47.102;15.452;2023-11-19T11:53:19;7.38;;;5.22;;
21804;SDS011;11064;47.102;15.452;2023-11-19T11:58:20;7.13;;;5.00;;
21804;SDS011;11064;47.102;15.452;2023-11-19T12:00:50;7.05;;;5.07;;
21804;SDS011;11064;47.102;15.452;2023-11-19T12:03:19;6.13;;;4.60;;
21804;SDS011;11064;47.102;15.452;2023-11-19T12:05:49;7.03;;;4.60;;
21804;SDS011;11064;47.102;15.452;2023-11-19T12:08:17;6.30;;;4.55;;
21804;SDS011;11064;47.102;15.452;2023-11-19T12:10:49;6.07;;;4.63;;
21804;SDS011;11064;47.102;15.452;2023-11-19T12:13:16;6.30;;;4.72;;
21804;SDS011;11064;47.102;15.452;2023-11-19T12:18:24;6.03;;;4.47;;
21804;SDS011;11064;47.102;15.452;2023-11-19T12:20:52;5.72;;;4.35;;
21804;SDS011;11064;47.102;15.452;2023-11-19T12:23:18;7.38;;;4.80;;
21804;SDS011;11064;47.102;15.452;2023-11-19T12:25:44;7.25;;;4.97;;
21804;SDS011;11064;47.102;15.452;2023-11-19T12:28:12;7.25;;;4.55;;
21804;SDS011;11064;47.102;15.452;2023-11-19T12:30:39;6.57;;;4.60;;
21804;SDS011;11064;47.102;15.452;2023-11-19T12:33:07;6.63;;;4.45;;
21804;SDS011;11064;47.102;15.452;2023-11-19T12:35:43;6.60;;;4.82;;
21804;SDS011;11064;47.102;15.452;2023-11-19T12:38:22;6.78;;;4.88;;
21804;SDS011;11064;47.102;15.452;2023-11-19T12:41:11;7.88;;;4.93;;
21804;SDS011;11064;47.102;15.452;2023-11-19T12:43:36;8.38;;;4.90;;
21804;SDS011;11064;47.102;15.452;2023-11-19T12:46:18;7.55;;;5.10;;
21804;SDS011;11064;47.102;15.452;2023-11-19T12:48:45;6.85;;;4.85;;
21804;SDS011;11064;47.102;15.452;2023-11-19T12:51:12;7.97;;;5.13;;
21804;SDS011;11064;47.102;15.452;2023-11-19T12:53:48;7.57;;;5.07;;
21804;SDS011;11064;47.102;15.452;2023-11-19T12:56:15;9.82;;;6.10;;
21804;SDS011;11064;47.102;15.452;2023-11-19T12:58:41;7.68;;;5.28;;
21804;SDS011;11064;47.102;15.452;2023-11-19T13:01:08;9.10;;;6.03;;
21804;SDS011;11064;47.102;15.452;2023-11-19T13:03:37;8.52;;;5.80;;
21804;SDS011;11064;47.102;15.452;2023-11-19T13:11:12;7.55;;;5.70;;
21804;SDS011;11064;47.102;15.452;2023-11-19T13:14:00;8.27;;;6.13;;
21804;SDS011;11064;47.102;15.452;2023-11-19T13:16:30;10.05;;;6.32;;
21804;SDS011;11064;47.102;15.452;2023-11-19T13:18:58;7.65;;;5.95;;
21804;SDS011;11064;47.102;15.452;2023-11-19T13:21:25;9.00;;;6.25;;
21804;SDS011;11064;47.102;15.452;2023-11-19T13:23:50;9.95;;;6.63;;
21804;SDS011;11064;47.102;15.452;2023-11-19T13:26:16;8.32;;;6.15;;
21804;SDS011;11064;47.102;15.452;2023-11-19T13:28:42;8.27;;;6.07;;
21804;SDS011;11064;47.102;15.452;2023-11-19T13:31:08;8.27;;;5.95;;
21804;SDS011;11064;47.102;15.452;2023-11-19T13:33:35;9.75;;;6.00;;
21804;SDS011;11064;47.102;15.452;2023-11-19T13:36:01;9.65;;;6.13;;
21804;SDS011;11064;47.102;15.452;2023-11-19T13:38:34;10.65;;;6.35;;
21804;SDS011;11064;47.102;15.452;2023-11-19T13:41:03;9.15;;;6.38;;
21804;SDS011;11064;47.102;15.452;2023-11-19T13:43:34;9.20;;;6.00;;
21804;SDS011;11064;47.102;15.452;2023-11-19T13:45:59;9.57;;;5.97;;
21804;SDS011;11064;47.102;15.452;2023-11-19T13:48:25;9.05;;;5.80;;
21804;SDS011;11064;47.102;15.452;2023-11-19T13:50:57;10.18;;;6.20;;
21804;SDS011;11064;47.102;15.452;2023-11-19T13:53:23;7.78;;;5.82;;
21804;SDS011;11064;47.102;15.452;2023-11-19T13:55:49;8.95;;;5.88;;
21804;SDS011;11064;47.102;15.452;2023-11-19T13:58:15;9.13;;;6.00;;
21804;SDS011;11064;47.102;15.452;2023-11-19T14:00:41;10.23;;;6.90;;
21804;SDS011;11064;47.102;15.452;2023-11-19T14:03:08;9.23;;;5.75;;
21804;SDS011;11064;47.102;15.452;2023-11-19T14:05:37;8.32;;;5.70;;
21804;SDS011;11064;47.102;15.452;2023-11-19T14:08:13;7.15;;;4.75;;
21804;SDS011;11064;47.102;15.452;2023-11-19T14:10:39;5.93;;;4.15;;
21804;SDS011;11064;47.102;15.452;2023-11-19T14:13:07;6.80;;;4.60;;
21804;SDS011;11064;47.102;15.452;2023-11-19T14:15:33;6.55;;;4.72;;
21804;SDS011;11064;47.102;15.452;2023-11-19T14:17:59;7.18;;;4.60;;
21804;SDS011;11064;47.102;15.452;2023-11-19T14:20:25;9.55;;;4.68;;
21804;SDS011;11064;47.102;15.452;2023-11-19T14:22:51;6.40;;;4.70;;
21804;SDS011;11064;47.102;15.452;2023-11-19T14:25:17;7.60;;;4.45;;
21804;SDS011;11064;47.102;15.452;2023-11-19T14:27:44;7.20;;;4.68;;
21804;SDS011;11064;47.102;15.452;2023-11-19T14:30:13;6.70;;;4.75;;
21804;SDS011;11064;47.102;15.452;2023-11-19T14:32:40;6.60;;;4.53;;
21804;SDS011;11064;47.102;15.452;2023-11-19T14:35:09;6.85;;;4.30;;
21804;SDS011;11064;47.102;15.452;2023-11-19T14:37:35;6.15;;;4.35;;
21804;SDS011;11064;47.102;15.452;2023-11-19T14:40:01;5.65;;;4.43;;
21804;SDS011;11064;47.102;15.452;2023-11-19T14:42:30;6.38;;;4.30;;
21804;SDS011;11064;47.102;15.452;2023-11-19T14:44:55;6.40;;;4.22;;
21804;SDS011;11064;47.102;15.452;2023-11-19T14:47:21;6.68;;;4.50;;
21804;SDS011;11064;47.102;15.452;2023-11-19T14:49:47;6.15;;;4.70;;
21804;SDS011;11064;47.102;15.452;2023-11-19T14:52:13;8.35;;;4.88;;
21804;SDS011;11064;47.102;15.452;2023-11-19T14:54:39;7.93;;;5.07;;
21804;SDS011;11064;47.102;15.452;2023-11-19T14:57:05;7.28;;;5.00;;
21804;SDS011;11064;47.102;15.452;2023-11-19T14:59:35;7.80;;;4.93;;
21804;SDS011;11064;47.102;15.452;2023-11-19T15:02:01;10.40;;;9.27;;
21804;SDS011;11064;47.102;15.452;2023-11-19T15:04:27;7.70;;;5.55;;
21804;SDS011;11064;47.102;15.452;2023-11-19T15:06:56;8.68;;;5.45;;
21804;SDS011;11064;47.102;15.452;2023-11-19T15:09:23;10.13;;;7.57;;
21804;SDS011;11064;47.102;15.452;2023-11-19T15:11:49;6.35;;;4.88;;
21804;SDS011;11064;47.102;15.452;2023-11-19T15:14:16;8.07;;;4.78;;
21804;SDS011;11064;47.102;15.452;2023-11-19T15:16:44;7.20;;;4.47;;
21804;SDS011;11064;47.102;15.452;2023-11-19T15:19:10;7.95;;;4.78;;
21804;SDS011;11064;47.102;15.452;2023-11-19T15:21:40;9.13;;;5.43;;
21804;SDS011;11064;47.102;15.452;2023-11-19T15:24:07;7.72;;;5.20;;
21804;SDS011;11064;47.102;15.452;2023-11-19T15:26:34;7.70;;;5.35;;
21804;SDS011;11064;47.102;15.452;2023-11-19T15:29:00;9.02;;;5.65;;
21804;SDS011;11064;47.102;15.452;2023-11-19T15:31:27;8.55;;;5.70;;
21804;SDS011;11064;47.102;15.452;2023-11-19T15:33:53;10.02;;;6.32;;
21804;SDS011;11064;47.102;15.452;2023-11-19T15:36:19;9.98;;;5.80;;
21804;SDS011;11064;47.102;15.452;2023-11-19T15:38:45;10.13;;;6.05;;
21804;SDS011;11064;47.102;15.452;2023-11-19T15:41:11;10.00;;;5.90;;
21804;SDS011;11064;47.102;15.452;2023-11-19T15:43:37;8.40;;;5.63;;
21804;SDS011;11064;47.102;15.452;2023-11-19T15:46:07;8.95;;;5.82;;
21804;SDS011;11064;47.102;15.452;2023-11-19T15:48:33;8.10;;;5.00;;
21804;SDS011;11064;47.102;15.452;2023-11-19T15:50:59;10.10;;;5.40;;
21804;SDS011;11064;47.102;15.452;2023-11-19T15:53:25;7.40;;;5.13;;
21804;SDS011;11064;47.102;15.452;2023-11-19T15:55:51;8.60;;;5.68;;
21804;SDS011;11064;47.102;15.452;2023-11-19T15:58:20;8.57;;;5.40;;
21804;SDS011;11064;47.102;15.452;2023-11-19T16:00:47;8.18;;;5.47;;
21804;SDS011;11064;47.102;15.452;2023-11-19T16:03:13;7.95;;;5.57;;
21804;SDS011;11064;47.102;15.452;2023-11-19T16:05:39;8.02;;;5.72;;
21804;SDS011;11064;47.102;15.452;2023-11-19T16:08:05;7.95;;;5.22;;
21804;SDS011;11064;47.102;15.452;2023-11-19T16:10:33;7.95;;;5.20;;
21804;SDS011;11064;47.102;15.452;2023-11-19T16:12:59;11.02;;;5.60;;
21804;SDS011;11064;47.102;15.452;2023-11-19T16:15:24;7.28;;;4.97;;
21804;SDS011;11064;47.102;15.452;2023-11-19T16:17:50;9.45;;;4.78;;
21804;SDS011;11064;47.102;15.452;2023-11-19T16:20:16;7.20;;;5.45;;
21804;SDS011;11064;47.102;15.452;2023-11-19T16:22:42;10.32;;;5.50;;
21804;SDS011;11064;47.102;15.452;2023-11-19T16:25:08;8.38;;;5.18;;
21804;SDS011;11064;47.102;15.452;2023-11-19T16:27:34;9.07;;;5.97;;
21804;SDS011;11064;47.102;15.452;2023-11-19T16:30:00;10.15;;;5.75;;
21804;SDS011;11064;47.102;15.452;2023-11-19T16:32:26;8.48;;;6.07;;
21804;SDS011;11064;47.102;15.452;2023-11-19T16:34:52;7.95;;;5.47;;
21804;SDS011;11064;47.102;15.452;2023-11-19T16:37:18;6.60;;;5.10;;
21804;SDS011;11064;47.102;15.452;2023-11-19T16:39:47;9.00;;;5.93;;
21804;SDS011;11064;47.102;15.452;2023-11-19T16:42:13;9.27;;;5.45;;
21804;SDS011;11064;47.102;15.452;2023-11-19T16:44:40;10.18;;;5.82;;
21804;SDS011;11064;47.102;15.452;2023-11-19T16:47:06;10.55;;;6.80;;
21804;SDS011;11064;47.102;15.452;2023-11-19T16:49:32;8.38;;;6.07;;
21804;SDS011;11064;47.102;15.452;2023-11-19T16:51:58;8.57;;;6.20;;
21804;SDS011;11064;47.102;15.452;2023-11-19T16:54:24;9.48;;;6.15;;
21804;SDS011;11064;47.102;15.452;2023-11-19T16:56:50;9.30;;;6.55;;
21804;SDS011;11064;47.102;15.452;2023-11-19T16:59:16;11.52;;;7.00;;
21804;SDS011;11064;47.102;15.452;2023-11-19T17:01:42;13.32;;;7.57;;
21804;SDS011;11064;47.102;15.452;2023-11-19T17:04:09;10.85;;;6.57;;
21804;SDS011;11064;47.102;15.452;2023-11-19T17:06:37;10.23;;;6.93;;
21804;SDS011;11064;47.102;15.452;2023-11-19T17:09:03;10.75;;;6.95;;
21804;SDS011;11064;47.102;15.452;2023-11-19T17:11:29;11.75;;;7.22;;
21804;SDS011;11064;47.102;15.452;2023-11-19T17:13:55;9.20;;;6.88;;
21804;SDS011;11064;47.102;15.452;2023-11-19T17:16:21;12.30;;;6.78;;
21804;SDS011;11064;47.102;15.452;2023-11-19T17:18:47;10.07;;;6.97;;
21804;SDS011;11064;47.102;15.452;2023-11-19T17:21:13;10.15;;;6.97;;
21804;SDS011;11064;47.102;15.452;2023-11-19T17:23:39;8.68;;;6.28;;
21804;SDS011;11064;47.102;15.452;2023-11-19T17:26:05;9.10;;;6.43;;
21804;SDS011;11064;47.102;15.452;2023-11-19T17:28:31;10.43;;;6.90;;
21804;SDS011;11064;47.102;15.452;2023-11-19T17:31:00;10.23;;;6.72;;
21804;SDS011;11064;47.102;15.452;2023-11-19T17:33:26;10.32;;;6.57;;
21804;SDS011;11064;47.102;15.452;2023-11-19T17:35:52;10.88;;;6.72;;
21804;SDS011;11064;47.102;15.452;2023-11-19T17:38:17;10.02;;;6.90;;
21804;SDS011;11064;47.102;15.452;2023-11-19T17:40:46;9.70;;;6.43;;
21804;SDS011;11064;47.102;15.452;2023-11-19T17:43:15;9.60;;;7.00;;
21804;SDS011;11064;47.102;15.452;2023-11-19T17:45:44;10.35;;;6.50;;
21804;SDS011;11064;47.102;15.452;2023-11-19T17:48:09;9.40;;;6.22;;
21804;SDS011;11064;47.102;15.452;2023-11-19T17:50:36;9.73;;;6.32;;
21804;SDS011;11064;47.102;15.452;2023-11-19T17:53:02;10.35;;;6.57;;
21804;SDS011;11064;47.102;15.452;2023-11-19T17:55:28;9.55;;;6.18;;
21804;SDS011;11064;47.102;15.452;2023-11-19T17:57:54;8.85;;;6.15;;
21804;SDS011;11064;47.102;15.452;2023-11-19T18:00:20;8.73;;;6.18;;
21804;SDS011;11064;47.102;15.452;2023-11-19T18:02:46;8.95;;;6.03;;
21804;SDS011;11064;47.102;15.452;2023-11-19T18:05:13;9.45;;;6.78;;
21804;SDS011;11064;47.102;15.452;2023-11-19T18:07:40;9.13;;;6.35;;
21804;SDS011;11064;47.102;15.452;2023-11-19T18:10:07;8.20;;;6.35;;
21804;SDS011;11064;47.102;15.452;2023-11-19T18:12:34;10.60;;;6.93;;
21804;SDS011;11064;47.102;15.452;2023-11-19T18:15:01;9.85;;;6.75;;
21804;SDS011;11064;47.102;15.452;2023-11-19T18:17:39;10.38;;;7.47;;
21804;SDS011;11064;47.102;15.452;2023-11-19T18:20:12;11.85;;;7.32;;
21804;SDS011;11064;47.102;15.452;2023-11-19T18:22:39;9.55;;;6.88;;
21804;SDS011;11064;47.102;15.452;2023-11-19T18:25:06;9.23;;;6.82;;
21804;SDS011;11064;47.102;15.452;2023-11-19T18:27:36;14.93;;;7.27;;
21804;SDS011;11064;47.102;15.452;2023-11-19T18:30:05;10.45;;;7.22;;
21804;SDS011;11064;47.102;15.452;2023-11-19T18:32:33;12.48;;;7.55;;
21804;SDS011;11064;47.102;15.452;2023-11-19T18:35:00;12.65;;;6.68;;
21804;SDS011;11064;47.102;15.452;2023-11-19T18:37:26;9.55;;;6.82;;
21804;SDS011;11064;47.102;15.452;2023-11-19T18:39:54;10.27;;;6.90;;
21804;SDS011;11064;47.102;15.452;2023-11-19T18:42:20;11.25;;;7.15;;
21804;SDS011;11064;47.102;15.452;2023-11-19T18:44:47;11.98;;;7.05;;
21804;SDS011;11064;47.102;15.452;2023-11-19T18:47:14;11.30;;;7.53;;
21804;SDS011;11064;47.102;15.452;2023-11-19T18:49:41;10.27;;;7.20;;
21804;SDS011;11064;47.102;15.452;2023-11-19T18:52:08;10.15;;;6.93;;
21804;SDS011;11064;47.102;15.452;2023-11-19T18:54:34;10.63;;;7.15;;
21804;SDS011;11064;47.102;15.452;2023-11-19T18:57:01;13.35;;;7.38;;
21804;SDS011;11064;47.102;15.452;2023-11-19T18:59:30;10.98;;;7.63;;
21804;SDS011;11064;47.102;15.452;2023-11-19T19:01:56;12.35;;;8.52;;
21804;SDS011;11064;47.102;15.452;2023-11-19T19:04:23;12.07;;;8.18;;
21804;SDS011;11064;47.102;15.452;2023-11-19T19:06:52;11.63;;;7.93;;
21804;SDS011;11064;47.102;15.452;2023-11-19T19:09:19;12.07;;;8.00;;
21804;SDS011;11064;47.102;15.452;2023-11-19T19:11:47;11.68;;;7.82;;
21804;SDS011;11064;47.102;15.452;2023-11-19T19:14:14;11.20;;;8.07;;
21804;SDS011;11064;47.102;15.452;2023-11-19T19:16:41;12.05;;;8.00;;
21804;SDS011;11064;47.102;15.452;2023-11-19T19:19:08;12.98;;;8.25;;
21804;SDS011;11064;47.102;15.452;2023-11-19T19:21:35;12.05;;;7.80;;
21804;SDS011;11064;47.102;15.452;2023-11-19T19:24:01;11.25;;;7.47;;
21804;SDS011;11064;47.102;15.452;2023-11-19T19:26:30;12.50;;;8.13;;
21804;SDS011;11064;47.102;15.452;2023-11-19T19:28:57;12.65;;;8.20;;
21804;SDS011;11064;47.102;15.452;2023-11-19T19:31:24;12.63;;;7.97;;
21804;SDS011;11064;47.102;15.452;2023-11-19T19:33:50;12.90;;;8.00;;
21804;SDS011;11064;47.102;15.452;2023-11-19T19:36:23;14.63;;;8.93;;
21804;SDS011;11064;47.102;15.452;2023-11-19T19:38:57;12.77;;;8.00;;
21804;SDS011;11064;47.102;15.452;2023-11-19T19:41:28;13.93;;;8.70;;
21804;SDS011;11064;47.102;15.452;2023-11-19T19:43:54;13.50;;;8.32;;
21804;SDS011;11064;47.102;15.452;2023-11-19T19:46:20;11.68;;;8.07;;
21804;SDS011;11064;47.102;15.452;2023-11-19T19:48:46;11.30;;;7.95;;
21804;SDS011;11064;47.102;15.452;2023-11-19T19:51:12;12.65;;;7.78;;
21804;SDS011;11064;47.102;15.452;2023-11-19T19:53:39;11.73;;;7.93;;
21804;SDS011;11064;47.102;15.452;2023-11-19T19:56:06;12.10;;;8.43;;
21804;SDS011;11064;47.102;15.452;2023-11-19T19:58:34;12.38;;;7.65;;
21804;SDS011;11064;47.102;15.452;2023-11-19T20:01:00;12.35;;;7.93;;
21804;SDS011;11064;47.102;15.452;2023-11-19T20:03:27;14.55;;;8.55;;
21804;SDS011;11064;47.102;15.452;2023-11-19T20:05:57;13.95;;;8.32;;
21804;SDS011;11064;47.102;15.452;2023-11-19T20:08:23;13.43;;;8.50;;
21804;SDS011;11064;47.102;15.452;2023-11-19T20:10:49;13.30;;;8.68;;
21804;SDS011;11064;47.102;15.452;2023-11-19T20:13:15;15.38;;;9.43;;
21804;SDS011;11064;47.102;15.452;2023-11-19T20:15:41;14.57;;;9.10;;
21804;SDS011;11064;47.102;15.452;2023-11-19T20:18:07;14.93;;;8.48;;
21804;SDS011;11064;47.102;15.452;2023-11-19T20:20:35;14.85;;;9.30;;
21804;SDS011;11064;47.102;15.452;2023-11-19T20:23:03;13.90;;;8.65;;
21804;SDS011;11064;47.102;15.452;2023-11-19T20:25:30;14.25;;;8.55;;
21804;SDS011;11064;47.102;15.452;2023-11-19T20:27:56;12.70;;;8.43;;
21804;SDS011;11064;47.102;15.452;2023-11-19T20:30:22;14.85;;;9.40;;
21804;SDS011;11064;47.102;15.452;2023-11-19T20:32:48;13.43;;;9.00;;
21804;SDS011;11064;47.102;15.452;2023-11-19T20:35:14;15.75;;;9.25;;
21804;SDS011;11064;47.102;15.452;2023-11-19T20:37:40;13.63;;;8.43;;
21804;SDS011;11064;47.102;15.452;2023-11-19T20:40:06;13.93;;;8.55;;
21804;SDS011;11064;47.102;15.452;2023-11-19T20:42:34;13.23;;;8.63;;
21804;SDS011;11064;47.102;15.452;2023-11-19T20:45:01;11.77;;;7.90;;
21804;SDS011;11064;47.102;15.452;2023-11-19T20:47:29;13.70;;;8.30;;
21804;SDS011;11064;47.102;15.452;2023-11-19T20:49:55;12.60;;;8.10;;